createdAt,value
2023-01-28T00:01:17.641Z,81.48
2023-01-28T00:03:49.156Z,83.46
2023-01-28T00:06:17.872Z,83.56
2023-01-28T00:08:46.210Z,80.62
2023-01-28T00:11:14.781Z,84.24
2023-01-28T00:13:42.932Z,83.98
2023-01-28T00:16:11.657Z,83.42
2023-01-28T00:18:39.623Z,82.01
2023-01-28T00:21:12.964Z,83.68
2023-01-28T00:23:43.221Z,82.83
2023-01-28T00:26:13.014Z,82.38
2023-01-28T00:28:42.287Z,83.22
2023-01-28T00:31:11.781Z,82.08
2023-01-28T00:33:39.714Z,82.58
2023-01-28T00:36:08.373Z,81.92
2023-01-28T00:38:36.664Z,84.07
2023-01-28T00:41:12.382Z,84.73
2023-01-28T00:43:41.542Z,84.71
2023-01-28T00:46:11.487Z,82.04
2023-01-28T00:48:40.883Z,83.75
2023-01-28T00:51:09.901Z,82.86
2023-01-28T00:53:38.717Z,82.55
2023-01-28T00:56:08.842Z,82.44
2023-01-28T00:58:37.106Z,81.56
2023-01-28T01:01:12.292Z,80.83
2023-01-28T01:03:40.960Z,80.60
2023-01-28T01:06:09.622Z,81.57
2023-01-28T01:08:40.331Z,82.32
2023-01-28T01:11:12.249Z,81.19
2023-01-28T01:13:40.222Z,81.87
2023-01-28T01:16:14.202Z,81.26
2023-01-28T01:18:42.463Z,80.87
2023-01-28T01:21:16.421Z,80.60
2023-01-28T01:23:46.695Z,79.35
2023-01-28T01:26:15.355Z,79.92
2023-01-28T01:28:43.767Z,78.94
2023-01-28T01:31:17.758Z,79.85
2023-01-28T01:33:47.652Z,78.69
2023-01-28T01:36:17.443Z,79.56
2023-01-28T01:38:46.103Z,80.54
2023-01-28T01:41:27.606Z,80.26
2023-01-28T01:44:01.600Z,80.55
2023-01-28T01:46:34.389Z,80.18
2023-01-28T01:49:18.323Z,80.67
2023-01-28T01:51:47.764Z,79.46
2023-01-28T01:54:17.202Z,81.54
2023-01-28T01:56:47.670Z,80.30
2023-01-28T01:59:20.182Z,80.42
2023-01-28T02:01:48.375Z,80.62
2023-01-28T02:04:21.169Z,80.91
2023-01-28T02:06:49.554Z,80.38
2023-01-28T02:09:23.573Z,80.34
2023-01-28T02:12:12.604Z,80.36
2023-01-28T02:14:50.471Z,79.49
2023-01-28T02:17:18.752Z,81.42
2023-01-28T02:20:13.461Z,81.48
2023-01-28T02:23:00.487Z,80.11
2023-01-28T02:25:41.041Z,78.99
2023-01-28T02:28:15.410Z,78.97
2023-01-28T02:30:51.220Z,78.09
2023-01-28T02:33:30.521Z,79.71
2023-01-28T02:36:04.082Z,79.20
2023-01-28T02:38:56.763Z,78.90
2023-01-28T02:41:31.493Z,80.88
2023-01-28T02:44:03.042Z,81.80
2023-01-28T02:46:49.813Z,80.39
2023-01-28T02:49:17.871Z,80.29
2023-01-28T02:52:03.692Z,82.88
2023-01-28T02:54:50.562Z,82.34
2023-01-28T02:57:18.437Z,82.12
2023-01-28T03:00:02.944Z,80.38
2023-01-28T03:03:05.483Z,81.13
2023-01-28T03:05:39.157Z,80.94
2023-01-28T03:08:27.812Z,79.75
2023-01-28T03:11:16.154Z,81.54
2023-01-28T03:14:03.701Z,80.84
2023-01-28T03:16:51.789Z,80.66
2023-01-28T03:19:38.781Z,81.03
2023-01-28T03:22:25.667Z,82.74
2023-01-28T03:25:12.902Z,82.98
2023-01-28T03:28:11.294Z,82.23
2023-01-28T03:31:07.702Z,83.67
2023-01-28T03:33:55.081Z,83.52
2023-01-28T03:36:41.746Z,84.38
2023-01-28T03:39:11.077Z,82.65
2023-01-28T03:41:40.164Z,81.44
2023-01-28T03:44:26.642Z,84.11
2023-01-28T03:46:55.004Z,85.41
2023-01-28T03:49:22.942Z,84.74
2023-01-28T03:51:51.143Z,84.77
2023-01-28T03:54:19.631Z,83.96
2023-01-28T03:56:48.812Z,83.10
2023-01-28T03:59:16.758Z,81.96
2023-01-28T04:01:45.085Z,81.44
2023-01-28T04:04:23.217Z,83.40
2023-01-28T04:06:53.097Z,81.94
2023-01-28T04:09:24.791Z,84.50
2023-01-28T04:11:53.792Z,82.93
2023-01-28T04:14:22.432Z,82.33
2023-01-28T04:16:50.812Z,82.44
2023-01-28T04:19:19.078Z,84.21
2023-01-28T04:21:49.232Z,81.27
2023-01-28T04:24:17.456Z,81.68
2023-01-28T04:26:45.601Z,82.43
2023-01-28T04:29:14.218Z,80.82
2023-01-28T04:31:42.144Z,83.57
2023-01-28T04:34:10.521Z,82.40
2023-01-28T04:36:39.101Z,83.51
2023-01-28T04:39:07.130Z,84.42
2023-01-28T04:41:36.048Z,83.09
2023-01-28T04:44:04.812Z,81.90
2023-01-28T04:46:33.233Z,81.70
2023-01-28T04:49:02.431Z,83.37
2023-01-28T04:51:30.952Z,82.29
2023-01-28T04:53:59.078Z,83.76
2023-01-28T04:56:27.281Z,83.70
2023-01-28T04:58:56.266Z,83.35
2023-01-28T05:01:25.329Z,84.36
2023-01-28T05:03:54.344Z,84.12
2023-01-28T05:06:22.832Z,83.80
2023-01-28T05:08:51.415Z,83.66
2023-01-28T05:11:19.971Z,83.73
2023-01-28T05:13:48.672Z,81.92
2023-01-28T05:16:16.564Z,83.17
2023-01-28T05:18:44.921Z,83.77
2023-01-28T05:21:14.051Z,84.50
2023-01-28T05:23:42.112Z,84.66
2023-01-28T05:26:10.660Z,84.22
2023-01-28T05:28:39.487Z,83.92
2023-01-28T05:31:10.811Z,82.68
2023-01-28T05:33:39.585Z,84.67
2023-01-28T05:36:09.152Z,85.53
2023-01-28T05:38:37.192Z,84.84
2023-01-28T05:41:05.544Z,85.38
2023-01-28T05:43:33.632Z,85.90
2023-01-28T05:46:02.328Z,85.00
2023-01-28T05:48:30.823Z,85.21
2023-01-28T05:50:59.324Z,85.20
2023-01-28T05:53:29.475Z,83.68
2023-01-28T05:55:58.247Z,84.42
2023-01-28T05:58:29.362Z,85.93
2023-01-28T06:00:58.503Z,85.07
2023-01-28T06:03:28.497Z,86.64
2023-01-28T06:05:56.953Z,85.14
2023-01-28T06:08:25.037Z,85.33
2023-01-28T06:10:53.793Z,85.25
2023-01-28T06:13:22.522Z,85.76
2023-01-28T06:15:53.171Z,85.92
2023-01-28T06:18:21.416Z,84.96
2023-01-28T06:20:50.618Z,85.53
2023-01-28T06:23:19.130Z,85.54
2023-01-28T06:25:47.252Z,85.25
2023-01-28T06:28:15.390Z,84.78
2023-01-28T06:30:44.957Z,87.05
2023-01-28T06:33:12.890Z,84.88
2023-01-28T06:35:40.881Z,84.55
2023-01-28T06:38:09.181Z,85.03
2023-01-28T06:40:37.347Z,85.59
2023-01-28T06:43:06.455Z,87.12
2023-01-28T06:45:34.845Z,86.88
2023-01-28T06:48:04.133Z,86.47
2023-01-28T06:50:32.273Z,85.14
2023-01-28T06:53:00.619Z,85.69
2023-01-28T06:55:28.679Z,85.60
2023-01-28T06:57:56.727Z,85.81
2023-01-28T07:00:25.510Z,84.63
2023-01-28T07:02:57.445Z,87.70
2023-01-28T07:05:26.712Z,88.08
2023-01-28T07:07:54.687Z,85.89
2023-01-28T07:10:22.832Z,85.31
2023-01-28T07:12:51.232Z,85.12
2023-01-28T07:15:19.252Z,83.73
2023-01-28T07:17:47.176Z,83.69
2023-01-28T07:20:16.673Z,85.42
2023-01-28T07:22:46.000Z,84.46
2023-01-28T07:25:14.848Z,84.12
2023-01-28T07:27:48.560Z,84.32
2023-01-28T07:30:17.955Z,85.41
2023-01-28T07:32:47.202Z,84.43
2023-01-28T07:35:16.255Z,84.68
2023-01-28T07:37:54.228Z,85.91
2023-01-28T07:40:23.475Z,85.95
2023-01-28T07:42:52.803Z,87.16
2023-01-28T07:45:24.581Z,86.62
2023-01-28T07:48:00.189Z,86.76
2023-01-28T07:50:29.815Z,86.92
2023-01-28T07:52:58.297Z,86.28
2023-01-28T07:55:28.299Z,88.27
2023-01-28T07:58:00.931Z,85.58
2023-01-28T08:00:31.046Z,85.33
2023-01-28T08:03:01.656Z,86.53
2023-01-28T08:05:39.890Z,86.84
2023-01-28T08:08:09.692Z,87.50
2023-01-28T08:10:38.577Z,85.97
2023-01-28T08:13:07.416Z,87.75
2023-01-28T08:15:37.053Z,86.93
2023-01-28T08:18:06.331Z,87.12
2023-01-28T08:20:35.174Z,85.60
2023-01-28T08:23:16.885Z,85.45
2023-01-28T08:25:45.628Z,85.48
2023-01-28T08:28:15.337Z,85.14
2023-01-28T08:30:43.484Z,84.74
2023-01-28T08:33:13.316Z,85.44
2023-01-28T08:35:42.266Z,83.70
2023-01-28T08:38:12.462Z,85.65
2023-01-28T08:40:40.538Z,85.34
2023-01-28T08:43:09.168Z,83.84
2023-01-28T08:45:37.208Z,86.21
2023-01-28T08:48:08.219Z,85.26
2023-01-28T08:50:38.864Z,85.15
2023-01-28T08:53:11.706Z,82.47
2023-01-28T08:55:40.119Z,85.16
2023-01-28T08:58:14.129Z,84.53
2023-01-28T09:00:43.158Z,87.92
2023-01-28T09:03:11.703Z,85.08
2023-01-28T09:05:40.224Z,85.45
2023-01-28T09:08:11.136Z,86.06
2023-01-28T09:10:39.794Z,85.89
2023-01-28T09:13:09.844Z,86.78
2023-01-28T09:15:38.869Z,87.98
2023-01-28T09:18:07.092Z,87.60
2023-01-28T09:20:35.323Z,88.54
2023-01-28T09:23:04.712Z,86.33
2023-01-28T09:25:36.434Z,88.46
2023-01-28T09:28:06.130Z,88.01
2023-01-28T09:30:37.303Z,89.25
2023-01-28T09:33:07.147Z,86.72
2023-01-28T09:35:36.187Z,85.41
2023-01-28T09:38:05.053Z,87.32
2023-01-28T09:40:40.532Z,86.04
2023-01-28T09:43:41.048Z,85.39
2023-01-28T09:46:13.540Z,82.89
2023-01-28T09:48:48.028Z,83.91
2023-01-28T09:51:37.118Z,83.43
2023-01-28T09:54:23.604Z,84.63
2023-01-28T09:56:56.102Z,82.11
2023-01-28T09:59:24.309Z,84.84
2023-01-28T10:02:00.603Z,81.70
2023-01-28T10:04:39.730Z,82.27
2023-01-28T10:07:26.707Z,79.96
2023-01-28T10:10:45.590Z,79.50
2023-01-28T10:13:40.082Z,78.22
2023-01-28T10:16:26.913Z,77.74
2023-01-28T10:19:17.137Z,79.14
2023-01-28T10:22:02.695Z,79.35
2023-01-28T10:24:41.352Z,79.59
2023-01-28T10:27:22.554Z,79.04
2023-01-28T10:29:51.687Z,79.25
2023-01-28T10:32:31.022Z,78.52
2023-01-28T10:35:05.011Z,81.29
2023-01-28T10:37:38.189Z,79.93
2023-01-28T10:40:13.631Z,78.12
2023-01-28T10:42:42.451Z,77.07
2023-01-28T10:45:23.963Z,75.99
2023-01-28T10:48:08.201Z,74.37
2023-01-28T10:50:36.472Z,78.16
2023-01-28T10:53:06.668Z,76.73
2023-01-28T10:55:57.736Z,75.11
2023-01-28T10:58:29.104Z,73.80
2023-01-28T11:01:00.524Z,75.68
2023-01-28T11:03:32.520Z,75.71
2023-01-28T11:06:01.203Z,73.19
2023-01-28T11:08:31.265Z,70.18
2023-01-28T11:10:59.632Z,71.01
2023-01-28T11:13:30.216Z,70.00
2023-01-28T11:16:07.093Z,68.24
2023-01-28T11:18:36.481Z,71.13
2023-01-28T11:21:07.579Z,72.28
2023-01-28T11:23:39.841Z,72.05
2023-01-28T11:26:15.845Z,72.53
2023-01-28T11:28:44.722Z,73.63
2023-01-28T11:31:16.201Z,78.28
2023-01-28T11:33:53.712Z,75.49
2023-01-28T11:36:25.493Z,74.89
2023-01-28T11:39:17.512Z,75.92
2023-01-28T11:41:47.541Z,72.87
2023-01-28T11:44:22.847Z,73.62
2023-01-28T11:46:57.294Z,73.08
2023-01-28T11:49:44.989Z,73.11
2023-01-28T11:52:55.529Z,75.93
2023-01-28T11:55:51.518Z,75.72
2023-01-28T11:58:24.514Z,73.83
2023-01-28T12:01:06.200Z,75.55
2023-01-28T12:03:43.872Z,76.14
2023-01-28T12:06:24.789Z,77.07
2023-01-28T12:09:18.848Z,75.03
2023-01-28T12:12:25.962Z,74.06
2023-01-28T12:15:38.919Z,75.64
2023-01-28T12:18:36.044Z,74.04
2023-01-28T12:21:09.630Z,74.40
2023-01-28T12:24:10.504Z,75.01
2023-01-28T12:26:46.232Z,76.63
2023-01-28T12:29:26.233Z,77.93
2023-01-28T12:32:29.147Z,77.23
2023-01-28T12:35:18.884Z,75.98
2023-01-28T12:38:03.901Z,75.77
2023-01-28T12:40:45.821Z,75.23
2023-01-28T12:43:21.515Z,76.63
2023-01-28T12:45:57.052Z,77.16
2023-01-28T12:48:47.399Z,75.26
2023-01-28T12:51:18.664Z,76.49
2023-01-28T12:54:00.454Z,76.55
2023-01-28T12:56:40.366Z,74.73
2023-01-28T12:59:27.028Z,75.36
2023-01-28T13:02:07.064Z,77.44
2023-01-28T13:04:43.103Z,74.57
2023-01-28T13:07:16.242Z,76.66
2023-01-28T13:10:23.023Z,74.14
2023-01-28T13:12:51.672Z,74.54
2023-01-28T13:15:20.553Z,73.87
2023-01-28T13:18:03.070Z,74.28
2023-01-28T13:20:54.140Z,77.95
2023-01-28T13:23:38.328Z,78.21
2023-01-28T13:26:41.702Z,77.07
2023-01-28T13:29:15.785Z,77.50
2023-01-28T13:31:46.648Z,76.69
2023-01-28T13:34:41.104Z,75.84
2023-01-28T13:37:32.917Z,75.15
2023-01-28T13:40:12.822Z,72.80
2023-01-28T13:42:42.018Z,74.08
2023-01-28T13:45:16.678Z,74.61
2023-01-28T13:47:48.108Z,75.26
2023-01-28T13:50:20.599Z,75.27
2023-01-28T13:53:30.455Z,75.66
2023-01-28T13:55:59.863Z,75.18
2023-01-28T13:59:03.872Z,76.13
2023-01-28T14:01:46.017Z,77.83
2023-01-28T14:04:36.094Z,77.10
2023-01-28T14:07:29.101Z,76.09
2023-01-28T14:10:15.893Z,75.08
2023-01-28T14:13:16.642Z,75.32
2023-01-28T14:16:12.256Z,77.15
2023-01-28T14:18:45.995Z,76.71
2023-01-28T14:21:19.799Z,77.31
2023-01-28T14:23:56.139Z,76.27
2023-01-28T14:26:57.904Z,77.44
2023-01-28T14:29:41.214Z,76.26
2023-01-28T14:32:17.923Z,78.85
2023-01-28T14:34:47.037Z,80.13
2023-01-28T14:37:25.570Z,79.64
2023-01-28T14:39:59.179Z,77.20
2023-01-28T14:42:31.757Z,78.61
2023-01-28T14:45:09.814Z,77.46
2023-01-28T14:48:00.493Z,78.03
2023-01-28T14:50:48.049Z,78.13
2023-01-28T14:53:50.170Z,78.79
2023-01-28T14:56:41.431Z,76.42
2023-01-28T14:59:23.134Z,77.36
2023-01-28T15:01:56.577Z,77.96
2023-01-28T15:04:30.895Z,80.58
2023-01-28T15:07:12.868Z,80.84
2023-01-28T15:09:41.388Z,80.56
2023-01-28T15:12:09.690Z,78.95
2023-01-28T15:14:38.252Z,79.72
2023-01-28T15:17:06.876Z,80.11
2023-01-28T15:19:36.681Z,79.74
2023-01-28T15:22:06.775Z,78.82
2023-01-28T15:24:36.136Z,78.36
2023-01-28T15:27:04.480Z,78.58
2023-01-28T15:29:35.602Z,78.87
2023-01-28T15:32:05.431Z,82.16
2023-01-28T15:34:33.608Z,81.92
2023-01-28T15:37:01.993Z,81.34
2023-01-28T15:39:30.967Z,80.86
2023-01-28T15:42:02.253Z,81.74
2023-01-28T15:44:34.179Z,81.82
2023-01-28T15:47:04.959Z,81.45
2023-01-28T15:49:36.304Z,81.87
2023-01-28T15:52:06.040Z,81.38
2023-01-28T15:54:41.224Z,81.29
2023-01-28T15:57:20.963Z,80.77
2023-01-28T15:59:51.573Z,82.65
2023-01-28T16:02:24.536Z,83.53
2023-01-28T16:05:08.672Z,82.75
2023-01-28T16:07:45.378Z,82.71
2023-01-28T16:10:25.222Z,85.31
2023-01-28T16:12:56.182Z,81.44
2023-01-28T16:15:24.585Z,81.56
2023-01-28T16:17:53.015Z,80.81
2023-01-28T16:20:29.592Z,82.65
2023-01-28T16:23:03.175Z,82.47
2023-01-28T16:25:33.842Z,81.67
2023-01-28T16:28:03.588Z,83.82
2023-01-28T16:30:31.778Z,85.04
2023-01-28T16:33:00.543Z,83.53
2023-01-28T16:35:42.490Z,83.70
2023-01-28T16:38:18.755Z,83.84
2023-01-28T16:40:47.940Z,84.56
2023-01-28T16:43:16.998Z,83.10
2023-01-28T16:45:46.380Z,85.44
2023-01-28T16:48:15.069Z,83.75
2023-01-28T16:50:43.704Z,84.00
2023-01-28T16:53:19.397Z,85.22
2023-01-28T16:55:50.249Z,84.78
2023-01-28T16:58:24.042Z,84.55
2023-01-28T17:00:53.376Z,83.63
2023-01-28T17:03:21.696Z,83.83
2023-01-28T17:05:50.104Z,84.09
2023-01-28T17:08:18.715Z,84.13
2023-01-28T17:10:55.100Z,83.90
2023-01-28T17:13:23.910Z,83.96
2023-01-28T17:15:53.275Z,84.04
2023-01-28T17:18:21.586Z,84.59
2023-01-28T17:20:50.157Z,86.23
2023-01-28T17:23:23.219Z,81.60
2023-01-28T17:25:51.721Z,81.62
2023-01-28T17:28:20.045Z,80.99
2023-01-28T17:30:48.272Z,80.38
2023-01-28T17:33:17.052Z,79.67
2023-01-28T17:35:48.902Z,81.05
2023-01-28T17:38:17.411Z,81.49
2023-01-28T17:40:45.554Z,83.13
2023-01-28T17:43:13.729Z,80.53
2023-01-28T17:45:42.229Z,80.56
2023-01-28T17:48:11.433Z,80.15
2023-01-28T17:50:40.694Z,80.03
2023-01-28T17:53:11.064Z,79.27
2023-01-28T17:55:39.411Z,79.13
2023-01-28T17:58:07.634Z,78.14
2023-01-28T18:00:37.141Z,78.40
2023-01-28T18:03:05.626Z,79.90
2023-01-28T18:05:33.713Z,78.72
2023-01-28T18:08:01.872Z,78.37
2023-01-28T18:10:30.437Z,78.15
2023-01-28T18:12:58.751Z,79.20
2023-01-28T18:15:27.041Z,79.97
2023-01-28T18:17:55.419Z,80.42
2023-01-28T18:20:23.620Z,79.08
2023-01-28T18:22:51.679Z,78.05
2023-01-28T18:25:20.660Z,80.78
2023-01-28T18:27:49.547Z,79.65
2023-01-28T18:30:18.599Z,80.01
2023-01-28T18:32:47.170Z,79.93
2023-01-28T18:35:15.578Z,78.09
2023-01-28T18:37:45.083Z,79.92
2023-01-28T18:40:13.801Z,79.50
2023-01-28T18:42:41.898Z,78.40
2023-01-28T18:45:10.483Z,78.38
2023-01-28T18:47:41.692Z,78.26
2023-01-28T18:50:10.128Z,76.82
2023-01-28T18:52:38.714Z,79.19
2023-01-28T18:55:07.394Z,78.08
2023-01-28T18:57:37.070Z,76.70
2023-01-28T19:00:06.204Z,77.12
2023-01-28T19:02:35.989Z,77.13
2023-01-28T19:05:07.583Z,77.20
2023-01-28T19:07:37.632Z,76.80
2023-01-28T19:10:08.119Z,81.07
2023-01-28T19:12:38.914Z,77.69
2023-01-28T19:15:08.315Z,76.34
2023-01-28T19:17:37.001Z,78.36
2023-01-28T19:20:07.930Z,79.44
2023-01-28T19:22:37.956Z,76.79
2023-01-28T19:25:09.112Z,75.86
2023-01-28T19:27:39.588Z,75.45
2023-01-28T19:30:13.139Z,77.98
2023-01-28T19:32:42.614Z,76.60
2023-01-28T19:35:11.918Z,76.73
2023-01-28T19:37:40.752Z,76.62
2023-01-28T19:40:10.468Z,78.16
2023-01-28T19:42:38.971Z,76.61
2023-01-28T19:45:07.554Z,77.41
2023-01-28T19:47:46.491Z,75.97
2023-01-28T19:50:15.760Z,76.34
2023-01-28T19:52:44.856Z,76.71
2023-01-28T19:55:13.166Z,78.30
2023-01-28T19:57:41.264Z,80.68
2023-01-28T20:00:11.850Z,77.89
2023-01-28T20:02:40.291Z,75.96
2023-01-28T20:05:08.813Z,77.16
2023-01-28T20:07:36.852Z,78.20
2023-01-28T20:10:05.694Z,75.31
2023-01-28T20:12:33.750Z,74.95
2023-01-28T20:15:01.834Z,75.15
2023-01-28T20:17:30.612Z,76.06
2023-01-28T20:19:58.707Z,79.47
2023-01-28T20:22:26.774Z,77.71
2023-01-28T20:24:57.409Z,78.04
2023-01-28T20:27:25.906Z,78.36
2023-01-28T20:29:54.404Z,76.47
2023-01-28T20:32:23.482Z,75.50
2023-01-28T20:34:52.402Z,74.86
2023-01-28T20:37:20.911Z,76.79
2023-01-28T20:39:49.092Z,77.56
2023-01-28T20:42:17.236Z,77.63
2023-01-28T20:44:48.361Z,74.89
2023-01-28T20:47:16.476Z,78.30
2023-01-28T20:49:44.562Z,77.42
2023-01-28T20:52:13.224Z,77.46
2023-01-28T20:54:41.413Z,76.91
2023-01-28T20:57:09.423Z,76.31
2023-01-28T20:59:37.856Z,77.76
2023-01-28T21:02:05.853Z,77.20
2023-01-28T21:04:34.240Z,75.92
2023-01-28T21:07:02.718Z,75.19
2023-01-28T21:09:30.731Z,74.94
2023-01-28T21:11:59.082Z,78.09
2023-01-28T21:14:27.530Z,78.41
2023-01-28T21:16:55.644Z,78.77
2023-01-28T21:19:23.911Z,76.00
2023-01-28T21:21:52.275Z,74.48
2023-01-28T21:24:20.419Z,76.54
2023-01-28T21:26:48.594Z,76.10
2023-01-28T21:29:19.068Z,74.59
2023-01-28T21:31:47.083Z,75.17
2023-01-28T21:34:16.165Z,76.03
2023-01-28T21:36:44.813Z,76.46
2023-01-28T21:39:12.841Z,75.32
2023-01-28T21:41:41.002Z,77.45
2023-01-28T21:44:11.975Z,75.63
2023-01-28T21:46:40.598Z,75.52
2023-01-28T21:49:10.564Z,74.32
2023-01-28T21:51:56.833Z,75.44
2023-01-28T21:54:25.112Z,76.43
2023-01-28T21:56:53.670Z,75.86
2023-01-28T21:59:30.859Z,77.00
2023-01-28T22:02:18.433Z,76.56
2023-01-28T22:04:49.576Z,76.88
2023-01-28T22:07:25.455Z,76.18
2023-01-28T22:10:18.987Z,76.51
2023-01-28T22:12:47.043Z,75.60
2023-01-28T22:15:15.444Z,75.24
2023-01-28T22:17:43.528Z,76.57
2023-01-28T22:20:12.013Z,76.06
2023-01-28T22:22:40.488Z,76.11
2023-01-28T22:25:08.923Z,76.08
2023-01-28T22:27:36.897Z,75.21
2023-01-28T22:30:05.900Z,75.24
2023-01-28T22:32:34.154Z,75.74
2023-01-28T22:35:04.911Z,75.54
2023-01-28T22:37:33.287Z,76.78
2023-01-28T22:40:01.587Z,76.03
2023-01-28T22:42:29.755Z,76.54
2023-01-28T22:44:58.203Z,76.79
2023-01-28T22:47:26.283Z,76.63
2023-01-28T22:49:54.293Z,76.54
2023-01-28T22:52:22.728Z,75.75
2023-01-28T22:54:51.868Z,74.12
2023-01-28T22:57:20.012Z,76.24
2023-01-28T22:59:59.723Z,76.43
2023-01-28T23:02:28.720Z,76.56
2023-01-28T23:04:57.180Z,76.37
2023-01-28T23:07:25.243Z,77.54
2023-01-28T23:09:53.349Z,77.87
2023-01-28T23:12:21.900Z,77.20
2023-01-28T23:15:08.435Z,78.09
2023-01-28T23:17:55.731Z,77.06
2023-01-28T23:20:42.505Z,78.38
2023-01-28T23:23:31.751Z,76.77
2023-01-28T23:25:59.734Z,77.35
2023-01-28T23:28:28.319Z,78.79
2023-01-28T23:30:56.537Z,79.27
2023-01-28T23:33:24.963Z,78.95
2023-01-28T23:35:53.423Z,78.47
2023-01-28T23:38:21.522Z,78.14
2023-01-28T23:40:49.625Z,77.30
2023-01-28T23:43:17.962Z,77.69
2023-01-28T23:45:45.931Z,79.11
2023-01-28T23:48:13.954Z,76.89
2023-01-28T23:50:42.530Z,76.84
2023-01-28T23:53:13.432Z,77.82
2023-01-28T23:55:41.441Z,76.00
2023-01-28T23:58:10.038Z,74.93
